Time;durP1;ratioP1;P1;durP2;ratioP2;P2;SDS_P1;SDS_P2;PMS_P1;PMS_P2;Temp;Humidity;BMP_temperature;BMP_pressure;BME280_temperature;BME280_humidity;BME280_pressure;Samples;Min_cycle;Max_cycle;Signal;HPM_P1;HPM_P2
2022/08/19 00:02:17;;;;;;;6.80;6.17;;;;;;;28.68;46.28;98966.91;5091965;28;20195;-72
2022/08/19 00:04:46;;;;;;;7.93;6.53;;;;;;;28.68;45.97;98966.91;5092127;28;20628;-72
2022/08/19 00:07:13;;;;;;;7.57;6.17;;;;;;;28.57;47.14;98960.19;5091956;28;20194;-71
2022/08/19 00:09:39;;;;;;;7.07;6.23;;;;;;;28.41;47.39;98962.66;5092097;28;20187;-71
2022/08/19 00:12:06;;;;;;;6.70;6.30;;;;;;;28.26;47.47;98960.38;5093813;28;20692;-71
2022/08/19 00:14:34;;;;;;;6.67;6.27;;;;;;;28.08;47.85;98966.19;5095581;28;20701;-71
2022/08/19 00:17:03;;;;;;;6.53;6.03;;;;;;;27.86;48.66;98971.84;5095482;28;20241;-71
2022/08/19 00:19:31;;;;;;;7.83;7.00;;;;;;;27.76;48.61;98972.91;5095583;28;20252;-71
2022/08/19 00:21:57;;;;;;;7.33;6.73;;;;;;;27.75;48.88;98962.31;5095424;28;20617;-71
2022/08/19 00:24:26;;;;;;;6.27;5.87;;;;;;;27.82;49.76;98968.13;5095466;28;20191;-70
2022/08/19 00:26:54;;;;;;;6.97;6.40;;;;;;;27.92;49.65;98967.81;5095578;28;20191;-70
2022/08/19 00:29:23;;;;;;;6.90;6.23;;;;;;;27.97;49.52;98963.00;5095677;28;20276;-71
2022/08/19 00:31:52;;;;;;;6.97;6.27;;;;;;;28.01;49.49;98963.16;5095215;28;20692;-69
2022/08/19 00:34:21;;;;;;;7.27;6.67;;;;;;;28.03;48.77;98958.16;5095191;28;20225;-69
2022/08/19 00:36:50;;;;;;;6.73;6.13;;;;;;;28.02;49.43;98960.09;5095678;28;20191;-68
2022/08/19 00:39:17;;;;;;;6.80;6.23;;;;;;;28.03;49.38;98952.72;5095468;28;20192;-69
2022/08/19 00:41:45;;;;;;;6.47;6.07;;;;;;;28.02;49.47;98948.38;5095032;28;20190;-69
2022/08/19 00:44:16;;;;;;;7.87;6.33;;;;;;;28.03;48.74;98955.44;5095391;28;20257;-69
2022/08/19 00:46:45;;;;;;;8.37;7.57;;;;;;;27.76;48.47;98901.16;5095002;28;20230;-70
2022/08/19 00:49:15;;;;;;;6.73;6.23;;;;;;;27.95;48.77;98940.69;5095291;28;20195;-69
2022/08/19 00:51:46;;;;;;;8.17;6.23;;;;;;;27.97;48.90;98943.09;5095462;28;20195;-69
2022/08/19 00:54:13;;;;;;;6.10;5.80;;;;;;;27.98;49.69;98939.22;5095989;28;20211;-69
2022/08/19 00:56:41;;;;;;;7.23;6.60;;;;;;;28.05;49.78;98936.81;5095216;28;20191;-71
2022/08/19 00:59:08;;;;;;;6.63;6.13;;;;;;;28.08;49.67;98933.41;5094791;28;20194;-71
2022/08/19 01:01:35;;;;;;;7.20;6.70;;;;;;;28.12;49.76;98932.47;5095136;28;20223;-71
2022/08/19 01:04:02;;;;;;;7.00;6.33;;;;;;;28.17;49.80;98923.31;5094947;28;20199;-71
2022/08/19 01:06:30;;;;;;;6.80;6.30;;;;;;;28.21;49.03;98924.22;5095221;28;20187;-71
2022/08/19 01:08:58;;;;;;;8.57;5.47;;;;;;;28.21;49.22;98918.78;5094672;28;20226;-71
2022/08/19 01:11:26;;;;;;;6.50;6.00;;;;;;;28.19;49.51;98921.03;5095233;28;20332;-71
2022/08/19 01:13:54;;;;;;;8.00;6.57;;;;;;;27.86;49.82;98917.22;5095270;28;20219;-71
2022/08/19 01:16:24;;;;;;;6.67;6.27;;;;;;;27.83;50.29;98923.31;5094362;28;20244;-71
2022/08/19 01:18:51;;;;;;;7.00;6.50;;;;;;;27.83;49.59;98920.59;5095312;28;20188;-71
2022/08/19 01:21:25;;;;;;;9.37;6.47;;;;;;;27.79;49.47;98916.88;5095078;28;20195;-71
2022/08/19 01:23:54;;;;;;;9.70;7.43;;;;;;;27.81;50.01;98922.81;5094039;28;20187;-71
2022/08/19 01:26:23;;;;;;;6.83;6.33;;;;;;;27.77;50.31;98916.41;5094144;28;20616;-71
2022/08/19 01:28:53;;;;;;;8.10;7.40;;;;;;;27.74;50.03;98925.22;5094509;28;20280;-70
2022/08/19 01:31:22;;;;;;;7.40;6.70;;;;;;;27.75;51.10;98929.56;5095512;28;20191;-70
2022/08/19 01:33:49;;;;;;;6.77;6.27;;;;;;;27.81;51.24;98931.03;5093568;28;20693;-70
2022/08/19 01:36:25;;;;;;;7.63;7.03;;;;;;;27.88;51.47;98928.63;5093601;28;20677;-70
2022/08/19 01:38:52;;;;;;;7.77;7.10;;;;;;;27.94;51.06;98947.28;5094688;28;20191;-70
2022/08/19 01:41:22;;;;;;;7.73;7.23;;;;;;;27.91;50.34;98952.56;5094183;28;20191;-70
2022/08/19 01:43:49;;;;;;;7.60;7.10;;;;;;;27.95;51.04;98950.78;5095115;28;20205;-70
2022/08/19 01:46:16;;;;;;;9.03;7.13;;;;;;;27.99;50.52;98959.94;5094252;28;20199;-70
2022/08/19 01:48:45;;;;;;;7.00;6.50;;;;;;;27.96;50.88;98952.38;5093751;28;20654;-72
2022/08/19 01:51:12;;;;;;;11.00;7.90;;;;;;;27.95;49.96;98958.97;5093729;28;20195;-71
2022/08/19 01:53:40;;;;;;;9.10;7.13;;;;;;;27.84;50.38;98968.59;5093893;28;20240;-71
2022/08/19 01:56:08;;;;;;;8.30;7.63;;;;;;;27.25;51.09;98972.03;5094004;28;20196;-71
2022/08/19 01:58:52;;;;;;;17.77;9.23;;;;;;;27.07;52.23;98976.59;5093549;28;20607;-72
2022/08/19 02:01:19;;;;;;;8.63;7.80;;;;;;;26.92;52.50;98979.78;5093933;28;20183;-71
2022/08/19 02:03:46;;;;;;;9.07;8.17;;;;;;;26.97;52.69;98982.34;5093684;28;20244;-71
2022/08/19 02:06:13;;;;;;;8.13;7.33;;;;;;;27.05;52.82;98983.50;5093969;28;20320;-71
2022/08/19 02:08:41;;;;;;;7.30;6.80;;;;;;;27.10;52.78;98975.97;5093624;28;20216;-71
2022/08/19 02:11:08;;;;;;;11.57;7.50;;;;;;;27.21;52.61;98985.50;5094275;28;20244;-71
2022/08/19 02:13:36;;;;;;;8.03;7.30;;;;;;;27.18;52.82;98974.38;5093225;28;20195;-71
2022/08/19 02:16:03;;;;;;;8.27;7.50;;;;;;;27.29;52.72;98989.38;5093812;28;20198;-71
2022/08/19 02:18:30;;;;;;;9.10;8.20;;;;;;;27.18;52.74;98988.84;5093602;28;20187;-71
2022/08/19 02:20:57;;;;;;;8.70;7.90;;;;;;;27.21;53.43;98992.88;5093197;28;20667;-71
2022/08/19 02:23:24;;;;;;;8.77;7.77;;;;;;;27.27;53.11;99005.28;5093085;28;20253;-72
2022/08/19 02:25:52;;;;;;;8.07;7.27;;;;;;;27.31;52.83;98992.59;5093448;28;20230;-72
2022/08/19 02:28:19;;;;;;;12.77;7.47;;;;;;;27.36;52.35;99001.41;5093075;28;20625;-72
2022/08/19 02:30:48;;;;;;;7.67;7.07;;;;;;;27.44;52.79;98994.41;5094259;28;20189;-71
2022/08/19 02:33:15;;;;;;;7.23;6.73;;;;;;;27.53;52.83;99000.66;5093024;28;20195;-71
2022/08/19 02:35:43;;;;;;;8.83;7.47;;;;;;;27.54;52.60;99002.28;5093185;28;20218;-72
2022/08/19 02:38:28;;;;;;;8.23;7.40;;;;;;;27.55;52.58;99003.88;5093260;28;20192;-72
2022/08/19 02:40:57;;;;;;;9.03;7.73;;;;;;;27.64;52.14;99004.72;5093144;28;20183;-71
2022/08/19 02:43:25;;;;;;;8.70;8.10;;;;;;;27.38;52.67;99007.38;5092671;28;20614;-70
2022/08/19 02:45:53;;;;;;;9.27;7.70;;;;;;;27.41;52.98;99014.13;5092769;28;20651;-73
2022/08/19 02:48:22;;;;;;;10.57;7.60;;;;;;;26.81;53.58;99013.03;5092907;28;20191;-72
2022/08/19 02:50:54;;;;;;;8.97;7.40;;;;;;;26.96;54.05;99015.38;5092593;28;20187;-71
2022/08/19 02:53:22;;;;;;;10.80;8.07;;;;;;;26.88;53.55;99010.69;5093056;28;20275;-71
2022/08/19 02:55:49;;;;;;;7.83;7.13;;;;;;;26.76;54.86;99014.00;5092519;28;20215;-71
2022/08/19 02:58:16;;;;;;;8.57;7.97;;;;;;;26.91;54.29;99010.06;5092831;28;20191;-71
2022/08/19 03:00:49;;;;;;;8.20;7.53;;;;;;;27.01;54.58;99015.22;5092527;28;20196;-71
2022/08/19 03:03:18;;;;;;;8.17;7.30;;;;;;;27.12;53.67;99022.03;5092316;28;20188;-68
2022/08/19 03:05:45;;;;;;;8.90;8.13;;;;;;;27.12;53.67;99019.28;5092737;28;20199;-68
2022/08/19 03:08:12;;;;;;;7.83;7.13;;;;;;;27.20;53.94;99024.78;5092520;28;20192;-68
2022/08/19 03:10:46;;;;;;;11.30;8.87;;;;;;;27.21;53.47;99020.16;5092650;28;20294;-68
2022/08/19 03:13:14;;;;;;;9.27;7.93;;;;;;;27.24;53.60;99030.44;5092983;28;20242;-68
2022/08/19 03:15:42;;;;;;;9.10;8.23;;;;;;;27.25;53.50;99027.41;5092689;28;20215;-68
2022/08/19 03:18:09;;;;;;;7.90;7.30;;;;;;;27.26;53.69;99028.19;5092859;28;20205;-68
2022/08/19 03:20:41;;;;;;;11.03;8.17;;;;;;;27.30;53.76;99026.44;5092621;28;20194;-68
2022/08/19 03:23:08;;;;;;;8.23;7.37;;;;;;;27.33;53.36;99025.81;5092133;28;20191;-68
2022/08/19 03:25:40;;;;;;;8.63;7.83;;;;;;;27.30;53.14;99037.34;5092204;28;20255;-68
2022/08/19 03:28:07;;;;;;;12.33;8.57;;;;;;;27.23;53.30;99028.84;5091950;28;20189;-68
2022/08/19 03:30:34;;;;;;;13.00;8.40;;;;;;;27.19;53.75;99033.28;5092177;28;20650;-68
2022/08/19 03:33:01;;;;;;;19.07;8.67;;;;;;;27.23;53.72;99039.75;5092296;28;20199;-69
2022/08/19 03:35:28;;;;;;;11.60;8.67;;;;;;;27.21;53.45;99045.53;5092021;28;20693;-69
2022/08/19 03:37:57;;;;;;;9.10;8.37;;;;;;;27.21;53.82;99041.97;5091895;28;20191;-69
2022/08/19 03:40:23;;;;;;;11.83;8.90;;;;;;;27.12;54.04;99038.38;5092290;28;20276;-68
2022/08/19 03:42:50;;;;;;;10.47;8.40;;;;;;;26.92;54.83;99044.38;5091729;28;20191;-68
2022/08/19 03:45:17;;;;;;;12.33;9.03;;;;;;;26.76;55.08;99043.97;5092843;28;20195;-68
2022/08/19 03:47:45;;;;;;;18.80;9.60;;;;;;;26.66;55.65;99046.16;5096199;28;20252;-68
2022/08/19 03:50:11;;;;;;;16.87;9.83;;;;;;;26.59;55.77;99046.59;5096392;28;20283;-68
2022/08/19 03:52:39;;;;;;;10.40;8.37;;;;;;;26.57;57.04;99050.69;5096452;28;20195;-68
2022/08/19 03:55:08;;;;;;;9.20;8.00;;;;;;;26.76;56.23;99056.78;5096193;28;20305;-68
2022/08/19 03:57:35;;;;;;;14.23;8.23;;;;;;;27.02;55.18;99055.00;5096291;28;20190;-69
2022/08/19 04:00:04;;;;;;;11.33;8.40;;;;;;;27.32;54.69;99059.69;5095895;28;20198;-69
2022/08/19 04:02:31;;;;;;;10.17;8.40;;;;;;;27.65;54.38;99055.44;5096116;28;20188;-69
2022/08/19 04:04:57;;;;;;;17.47;8.60;;;;;;;28.02;52.90;99054.88;5096145;28;20222;-69
2022/08/19 04:07:24;;;;;;;20.70;10.10;;;;;;;28.34;51.99;99048.94;5095749;28;20195;-69
2022/08/19 04:09:51;;;;;;;15.50;8.27;;;;;;;28.67;50.76;99047.34;5095985;28;20195;-69
2022/08/19 04:12:20;;;;;;;11.40;8.70;;;;;;;28.95;50.04;99059.50;5096043;28;20217;-69
2022/08/19 04:14:47;;;;;;;15.40;9.23;;;;;;;29.21;49.24;99062.97;5095525;28;20716;-69
2022/08/19 04:17:14;;;;;;;17.60;10.03;;;;;;;29.55;47.98;99073.75;5095565;28;20222;-69
2022/08/19 04:19:42;;;;;;;23.47;9.50;;;;;;;29.90;47.20;99069.72;5095851;28;20192;-68
2022/08/19 04:22:10;;;;;;;23.80;10.40;;;;;;;30.24;45.99;99068.66;5095528;28;20708;-69
2022/08/19 04:24:38;;;;;;;23.57;10.90;;;;;;;30.49;44.97;99075.91;5095611;28;20199;-69
2022/08/19 04:27:06;;;;;;;27.17;10.20;;;;;;;30.83;43.63;99070.09;5095450;28;20192;-69
2022/08/19 04:29:34;;;;;;;19.37;9.53;;;;;;;31.16;43.21;99074.41;5095570;28;20259;-69
2022/08/19 04:32:01;;;;;;;15.57;9.00;;;;;;;31.50;42.41;99079.50;5095577;28;20245;-68
2022/08/19 04:34:30;;;;;;;13.50;8.53;;;;;;;31.84;41.56;99086.47;5095408;28;20256;-68
2022/08/19 04:36:59;;;;;;;17.07;8.80;;;;;;;32.13;40.92;99080.72;5095177;28;20191;-69
2022/08/19 04:44:58;;;;;;;28.23;10.33;;;;;;;33.00;38.61;99085.25;5095360;28;20190;-69
2022/08/19 04:47:25;;;;;;;22.13;9.40;;;;;;;33.30;37.93;99086.41;5095333;28;20213;-68
2022/08/19 04:49:51;;;;;;;19.43;9.73;;;;;;;33.58;37.16;99089.09;5095087;28;20617;-67
2022/08/19 04:52:18;;;;;;;13.73;9.13;;;;;;;33.81;36.67;99090.06;5094921;28;20191;-67
2022/08/19 04:54:45;;;;;;;18.03;9.40;;;;;;;34.13;36.20;99086.88;5094689;28;20587;-67
2022/08/19 04:57:11;;;;;;;16.70;7.80;;;;;;;34.35;35.68;99094.50;5094439;28;20195;-67
2022/08/19 04:59:39;;;;;;;8.43;7.63;;;;;;;34.52;35.52;99096.03;5095016;28;20280;-67
2022/08/19 05:02:08;;;;;;;12.70;7.80;;;;;;;34.77;35.65;99097.31;5094838;28;20240;-67
2022/08/19 05:04:38;;;;;;;9.65;7.43;;;;;;;35.12;34.60;99101.59;5094775;28;20191;-67
2022/08/19 05:07:06;;;;;;;10.40;6.82;;;;;;;35.08;34.38;99099.91;5094517;28;20199;-68
2022/08/19 05:09:32;;;;;;;11.38;7.65;;;;;;;35.34;33.70;99100.81;5094356;28;20191;-67
2022/08/19 05:12:00;;;;;;;16.83;7.03;;;;;;;35.59;33.49;99092.94;5094700;28;20268;-67
2022/08/19 05:14:26;;;;;;;8.25;6.90;;;;;;;35.64;33.20;99098.19;5094671;28;20191;-67
2022/08/19 05:16:53;;;;;;;10.43;7.00;;;;;;;35.76;32.73;99106.28;5094589;28;20284;-67
2022/08/19 05:24:49;;;;;;;15.25;7.68;;;;;;;36.42;31.68;99112.03;5094429;28;20325;-68
2022/08/19 05:27:16;;;;;;;11.23;7.40;;;;;;;36.62;31.19;99100.41;5094602;28;20623;-66
2022/08/19 05:29:43;;;;;;;8.68;6.75;;;;;;;36.84;30.79;99112.56;5094033;28;20660;-66
2022/08/19 05:32:10;;;;;;;7.28;6.18;;;;;;;36.88;31.14;99103.13;5095027;28;20568;-67
2022/08/19 05:34:39;;;;;;;16.13;6.70;;;;;;;36.81;30.83;99111.34;5094906;28;20612;-67
2022/08/19 05:37:07;;;;;;;9.95;8.30;;;;;;;37.20;29.22;99111.78;5094261;28;20257;-66
2022/08/19 05:39:36;;;;;;;16.92;6.13;;;;;;;37.40;29.14;99109.59;5094270;28;20573;-66
2022/08/19 05:42:06;;;;;;;7.65;5.53;;;;;;;37.37;28.80;99111.16;5094025;28;20260;-67
2022/08/19 05:44:35;;;;;;;6.53;5.85;;;;;;;37.46;27.69;99111.63;5094247;28;20278;-67
2022/08/19 05:47:05;;;;;;;13.55;5.97;;;;;;;37.42;28.44;99113.56;5093837;28;20191;-66
2022/08/19 05:49:34;;;;;;;9.85;5.45;;;;;;;37.05;27.97;99105.28;5094257;28;20235;-67
2022/08/19 05:52:04;;;;;;;15.27;5.55;;;;;;;36.81;29.69;99094.72;5093982;28;20240;-67
2022/08/19 05:54:31;;;;;;;10.75;6.85;;;;;;;36.94;28.95;99101.59;5093609;28;20191;-67
2022/08/19 05:56:58;;;;;;;6.00;5.38;;;;;;;36.75;29.08;99103.75;5094424;28;20288;-67
2022/08/19 05:59:24;;;;;;;10.30;5.43;;;;;;;36.42;29.86;99103.72;5094037;28;20630;-66
2022/08/19 06:01:54;;;;;;;20.45;6.22;;;;;;;36.67;29.46;99099.28;5091306;28;20199;-66
2022/08/19 06:04:21;;;;;;;9.70;5.22;;;;;;;36.54;29.73;99109.00;5092971;28;20191;-65
2022/08/19 06:06:50;;;;;;;9.18;5.35;;;;;;;36.68;29.33;99110.00;5093552;28;20199;-66
2022/08/19 06:09:18;;;;;;;10.15;6.50;;;;;;;36.74;28.86;99115.97;5092621;28;20260;-66
2022/08/19 06:11:47;;;;;;;8.63;5.70;;;;;;;36.71;29.46;99116.75;5093396;28;20195;-66
2022/08/19 06:14:20;;;;;;;7.38;5.88;;;;;;;36.95;28.99;99117.03;5093340;28;20671;-66
2022/08/19 06:16:48;;;;;;;15.25;6.00;;;;;;;37.17;28.88;99115.31;5093392;28;20207;-65
2022/08/19 06:19:17;;;;;;;7.68;6.00;;;;;;;37.42;28.05;99121.09;5092974;28;20739;-67
2022/08/19 06:21:47;;;;;;;6.47;5.13;;;;;;;37.20;28.49;99120.09;5089158;28;20212;-65
2022/08/19 06:24:19;;;;;;;12.95;5.65;;;;;;;37.19;28.08;99115.72;5073015;28;20261;-68
2022/08/19 06:26:49;;;;;;;6.10;5.50;;;;;;;36.66;28.44;99119.84;5072795;28;20184;-68
2022/08/19 06:29:17;;;;;;;8.63;6.35;;;;;;;36.47;28.51;99117.22;5073124;28;20224;-68
2022/08/19 06:31:45;;;;;;;6.10;5.50;;;;;;;35.96;29.53;99127.13;5070742;28;20192;-74
2022/08/19 06:34:13;;;;;;;10.38;5.72;;;;;;;36.24;29.63;99130.34;5071118;28;20253;-72
2022/08/19 06:36:43;;;;;;;6.90;5.38;;;;;;;36.52;29.75;99125.19;5071050;28;20216;-73
2022/08/19 06:39:15;;;;;;;8.77;5.43;;;;;;;36.81;28.88;99121.63;5073066;28;20223;-73
2022/08/19 06:41:44;;;;;;;28.80;6.72;;;;;;;36.79;28.36;99129.53;5072678;28;20237;-73
2022/08/19 06:44:13;;;;;;;8.48;5.50;;;;;;;36.65;28.98;99129.31;5072744;28;20191;-73
2022/08/19 06:46:42;;;;;;;7.35;5.35;;;;;;;36.92;28.71;99133.63;5072401;28;20199;-77
2022/08/19 06:49:13;;;;;;;7.28;6.10;;;;;;;36.70;29.05;99131.78;5072644;28;20257;-74
2022/08/19 06:51:41;;;;;;;6.50;5.65;;;;;;;35.65;30.25;99132.94;5071907;28;20569;-67
2022/08/19 06:54:07;;;;;;;10.75;5.75;;;;;;;35.87;30.93;99129.34;5070181;28;20192;-66
2022/08/19 06:56:35;;;;;;;8.63;6.03;;;;;;;36.38;29.81;99130.56;5070306;28;20227;-66
2022/08/19 06:59:02;;;;;;;7.88;5.10;;;;;;;36.34;29.92;99130.47;5071203;28;20222;-65
2022/08/19 07:01:30;;;;;;;10.73;5.53;;;;;;;36.66;29.73;99130.91;5071989;28;20192;-65
2022/08/19 07:03:57;;;;;;;14.57;6.40;;;;;;;36.52;29.96;99126.00;5071436;28;20245;-66
2022/08/19 07:06:24;;;;;;;8.98;6.15;;;;;;;36.50;30.12;99124.78;5071666;28;20200;-66
2022/08/19 07:08:51;;;;;;;8.73;5.82;;;;;;;35.93;30.14;99117.59;5072021;28;20670;-66
2022/08/19 07:11:20;;;;;;;10.93;5.78;;;;;;;35.69;30.98;99114.44;5072032;28;20849;-66
2022/08/19 07:13:48;;;;;;;9.65;5.57;;;;;;;35.33;30.84;99112.25;5072080;28;20674;-66
2022/08/19 07:16:19;;;;;;;8.05;5.20;;;;;;;35.26;31.22;99109.31;5071875;28;20311;-66
2022/08/19 07:18:48;;;;;;;6.50;5.85;;;;;;;35.37;31.32;99110.34;5073182;28;20188;-66
2022/08/19 07:21:17;;;;;;;39.05;8.02;;;;;;;35.69;30.89;99100.63;5071871;28;20199;-66
2022/08/19 07:23:44;;;;;;;12.35;6.18;;;;;;;36.07;29.88;99108.72;5072317;28;20632;-66
2022/08/19 07:26:24;;;;;;;10.48;5.75;;;;;;;35.77;30.83;99103.13;5072208;28;20196;-66
2022/08/19 07:28:50;;;;;;;6.80;5.00;;;;;;;35.68;30.11;99101.78;5072447;28;20277;-67
2022/08/19 07:31:20;;;;;;;5.28;4.60;;;;;;;35.75;30.28;99110.22;5071016;28;20196;-67
2022/08/19 07:33:51;;;;;;;6.68;5.35;;;;;;;36.11;30.40;99109.56;5071292;28;20196;-67
2022/08/19 07:36:20;;;;;;;5.80;5.03;;;;;;;36.26;29.12;99105.88;5071636;28;20203;-68
2022/08/19 07:38:49;;;;;;;8.55;5.95;;;;;;;36.10;29.43;99108.00;5071956;28;20250;-68
2022/08/19 07:41:22;;;;;;;5.13;4.70;;;;;;;36.15;29.75;99102.94;5070743;28;20261;-68
2022/08/19 07:43:50;;;;;;;8.00;4.95;;;;;;;36.28;29.15;99103.50;5071574;28;20188;-66
2022/08/19 07:46:17;;;;;;;8.27;4.90;;;;;;;36.15;29.45;99099.34;5071500;28;20675;-68
2022/08/19 07:48:46;;;;;;;5.72;4.68;;;;;;;36.25;29.37;99104.28;5072400;28;20192;-67
2022/08/19 07:51:17;;;;;;;7.85;4.80;;;;;;;36.10;29.27;99102.44;5070898;28;20577;-66
2022/08/19 07:53:44;;;;;;;7.90;4.45;;;;;;;35.90;29.69;99100.97;5071368;28;20647;-66
2022/08/19 07:56:12;;;;;;;5.90;4.65;;;;;;;36.18;29.64;99093.09;5071285;28;20219;-67
2022/08/19 07:58:44;;;;;;;7.88;4.93;;;;;;;36.57;29.16;99099.94;5071734;28;20246;-66
2022/08/19 08:01:14;;;;;;;4.93;4.63;;;;;;;36.50;28.90;99097.88;5071503;28;20546;-66
2022/08/19 08:09:15;;;;;;;6.35;4.70;;;;;;;37.02;28.26;99097.72;5071660;28;20179;-65
2022/08/19 08:11:49;;;;;;;6.75;5.50;;;;;;;37.33;27.65;99099.25;5071540;28;20184;-63
2022/08/19 08:14:19;;;;;;;8.27;5.18;;;;;;;37.24;27.84;99098.78;5072562;28;20189;-65
2022/08/19 08:16:47;;;;;;;6.95;5.15;;;;;;;37.15;27.27;99098.28;5071218;28;20208;-65
2022/08/19 08:19:15;;;;;;;5.40;4.90;;;;;;;37.05;27.61;99094.19;5071804;28;20250;-65
2022/08/19 08:21:43;;;;;;;5.45;5.00;;;;;;;36.26;29.08;99089.28;5071375;28;20283;-68
2022/08/19 08:24:12;;;;;;;5.10;4.70;;;;;;;36.77;28.18;99090.31;5071282;28;20193;-77
2022/08/19 08:26:39;;;;;;;6.15;4.80;;;;;;;36.75;28.08;99084.38;5072019;28;20200;-73
2022/08/19 08:29:07;;;;;;;24.42;6.03;;;;;;;36.66;28.64;99081.84;5072106;28;20289;-72
2022/08/19 08:31:34;;;;;;;6.15;4.95;;;;;;;37.03;27.07;99091.00;5071883;28;20553;-77
2022/08/19 08:34:01;;;;;;;5.70;4.88;;;;;;;37.49;27.23;99091.47;5074793;28;20287;-71
2022/08/19 08:36:28;;;;;;;6.38;4.97;;;;;;;37.58;27.60;99080.84;5075460;28;20216;-73
2022/08/19 08:38:57;;;;;;;12.60;5.88;;;;;;;37.33;28.19;99066.00;5075005;28;20663;-76
2022/08/19 08:41:32;;;;;;;8.98;4.97;;;;;;;37.07;28.44;99074.44;5075328;28;20192;-76
2022/08/19 08:43:59;;;;;;;7.80;5.00;;;;;;;37.53;27.55;99081.19;5075330;28;20184;-73
2022/08/19 08:46:36;;;;;;;8.00;5.00;;;;;;;37.28;28.02;99069.13;5075633;28;20216;-73
2022/08/19 08:49:08;;;;;;;5.90;5.30;;;;;;;37.88;27.06;99075.16;5074810;28;20541;-73
2022/08/19 08:51:39;;;;;;;12.20;5.03;;;;;;;38.13;26.70;99068.56;5075849;28;20245;-75
2022/08/19 08:54:12;;;;;;;5.47;5.07;;;;;;;38.62;26.47;99070.81;5075461;28;20199;-76
2022/08/19 08:56:40;;;;;;;11.77;5.18;;;;;;;38.41;26.62;99065.94;5075438;28;20220;-74
2022/08/19 08:59:13;;;;;;;25.27;6.20;;;;;;;38.45;26.49;99066.75;5074974;28;20199;-74
2022/08/19 09:01:40;;;;;;;6.75;4.68;;;;;;;38.50;27.15;99066.38;5072110;28;20199;-74
2022/08/19 09:04:08;;;;;;;26.40;5.78;;;;;;;38.59;26.60;99066.03;5074634;28;20192;-74
2022/08/19 09:06:42;;;;;;;8.15;4.50;;;;;;;38.86;25.46;99067.31;5074483;28;20223;-74
2022/08/19 09:09:18;;;;;;;11.98;5.25;;;;;;;39.00;25.37;99062.59;5074545;28;20563;-77
2022/08/19 09:12:01;;;;;;;8.70;4.40;;;;;;;38.65;25.26;99056.16;5071703;28;20681;-75
2022/08/19 09:14:37;;;;;;;4.47;4.07;;;;;;;37.95;26.00;99045.47;5074036;28;20250;-76
2022/08/19 09:17:07;;;;;;;7.45;4.75;;;;;;;38.36;25.84;99052.44;5074036;28;20632;-73
2022/08/19 09:19:35;;;;;;;4.68;4.28;;;;;;;38.05;25.22;99041.19;5074422;28;20195;-73
2022/08/19 09:22:02;;;;;;;4.55;4.18;;;;;;;38.30;25.96;99040.13;5073863;28;20752;-72
2022/08/19 09:24:30;;;;;;;4.32;4.00;;;;;;;37.91;25.78;99046.63;5074389;28;20196;-72
2022/08/19 09:26:57;;;;;;;4.85;3.58;;;;;;;38.39;23.82;99039.75;5073937;28;20200;-70
2022/08/19 09:29:24;;;;;;;6.80;4.03;;;;;;;38.43;24.35;99035.00;5073836;28;20232;-71
2022/08/19 09:31:51;;;;;;;4.93;4.45;;;;;;;38.79;24.55;99042.28;5091675;28;20219;-74
2022/08/19 09:34:19;;;;;;;4.40;3.83;;;;;;;38.47;24.13;99036.66;5093928;28;20195;-75
2022/08/19 09:36:46;;;;;;;4.80;3.80;;;;;;;38.41;24.49;99034.63;5094520;28;20251;-74
2022/08/19 09:39:13;;;;;;;5.35;4.05;;;;;;;38.82;24.06;99033.94;5089889;28;20277;-74
2022/08/19 09:41:41;;;;;;;4.75;4.38;;;;;;;38.61;24.50;99035.91;5053571;28;20196;-70
2022/08/19 09:44:07;;;;;;;4.70;4.50;;;;;;;37.90;25.13;99039.47;5053317;28;20192;-70
2022/08/19 09:46:35;;;;;;;4.85;4.45;;;;;;;38.44;24.68;99026.28;5073477;28;20660;-68
2022/08/19 09:49:05;;;;;;;4.78;4.47;;;;;;;38.80;24.18;99028.00;5073289;28;20245;-70
2022/08/19 09:51:32;;;;;;;4.85;4.05;;;;;;;38.96;23.89;99031.25;5073318;28;20235;-69
2022/08/19 09:54:01;;;;;;;4.15;3.78;;;;;;;39.18;23.86;99023.69;5073354;28;20663;-79
2022/08/19 09:56:28;;;;;;;4.80;3.90;;;;;;;39.28;22.71;99022.91;5066880;28;20219;-79
2022/08/19 09:58:58;;;;;;;7.50;4.60;;;;;;;39.26;22.77;99023.31;5059946;28;20246;-77
2022/08/19 10:01:28;;;;;;;5.05;4.05;;;;;;;39.28;23.18;99004.25;5069381;28;20184;-75
2022/08/19 10:03:56;;;;;;;6.70;4.13;;;;;;;39.51;23.58;99009.44;5071807;28;20196;-78
2022/08/19 10:06:25;;;;;;;5.53;4.30;;;;;;;39.41;23.15;99002.69;5071573;28;20204;-72
2022/08/19 10:08:53;;;;;;;12.43;4.13;;;;;;;39.30;23.73;99007.44;5073064;28;20192;-76
2022/08/19 10:11:21;;;;;;;5.80;4.07;;;;;;;38.84;23.99;99006.59;5072769;28;20187;-76
2022/08/19 10:13:48;;;;;;;18.95;7.07;;;;;;;38.69;24.65;98993.84;5072269;28;20199;-76
2022/08/19 10:16:19;;;;;;;8.95;4.68;;;;;;;38.25;25.16;98995.28;5072654;28;20204;-77
2022/08/19 10:18:47;;;;;;;4.55;4.15;;;;;;;38.22;24.55;98991.31;5073265;28;20309;-78
2022/08/19 10:21:16;;;;;;;5.80;4.15;;;;;;;38.59;24.42;98991.88;5073261;28;20615;-79
2022/08/19 10:23:47;;;;;;;7.22;3.97;;;;;;;38.50;24.09;98985.88;5073120;28;20253;-79
2022/08/19 10:26:19;;;;;;;6.07;4.18;;;;;;;38.71;24.19;98980.38;5073287;28;20612;-77
2022/08/19 10:28:46;;;;;;;4.68;4.28;;;;;;;38.64;24.45;98985.09;5073159;28;20228;-77
2022/08/19 10:31:17;;;;;;;5.85;4.60;;;;;;;38.95;23.75;98979.63;5072900;28;20191;-76
2022/08/19 10:33:45;;;;;;;4.95;4.53;;;;;;;39.14;23.88;98973.66;5072788;28;20185;-75
2022/08/19 10:36:17;;;;;;;4.22;3.92;;;;;;;38.90;24.15;98976.44;5072805;28;20673;-78
2022/08/19 10:38:45;;;;;;;4.30;4.03;;;;;;;38.98;23.78;98973.28;5072542;28;20184;-78
2022/08/19 10:41:14;;;;;;;5.50;4.35;;;;;;;38.87;23.51;98966.88;5072845;28;20200;-77
2022/08/19 10:43:41;;;;;;;5.90;4.35;;;;;;;38.89;22.84;98975.63;5072503;28;20188;-78
2022/08/19 10:46:10;;;;;;;4.78;4.38;;;;;;;38.91;23.07;98970.47;5073082;28;20200;-78
2022/08/19 10:48:37;;;;;;;4.07;3.72;;;;;;;38.99;22.64;98977.63;5072707;28;20250;-65
2022/08/19 10:53:50;;;;;;;5.97;4.45;;;;;;;39.19;21.95;98969.72;5071892;28;20234;-67
2022/08/19 10:59:03;;;;;;;6.78;4.32;;;;;;;39.22;22.19;98966.91;5072323;28;20188;-67
2022/08/19 11:01:32;;;;;;;4.70;4.18;;;;;;;39.01;22.60;98966.94;5072665;28;20188;-66
2022/08/19 11:04:00;;;;;;;4.95;4.10;;;;;;;39.09;23.13;98960.19;5073253;28;20196;-67
2022/08/19 11:06:29;;;;;;;5.10;4.30;;;;;;;39.06;23.04;98957.41;5072480;28;20272;-65
2022/08/19 11:08:56;;;;;;;4.32;3.90;;;;;;;39.17;22.58;98959.00;5072444;28;20198;-64
2022/08/19 11:11:23;;;;;;;4.82;4.43;;;;;;;39.26;22.72;98951.03;5072081;28;20196;-65
2022/08/19 11:13:50;;;;;;;4.75;4.32;;;;;;;39.21;22.57;98943.09;5072198;28;20249;-66
2022/08/19 11:16:19;;;;;;;7.97;4.10;;;;;;;39.30;22.50;98946.25;5072518;28;20218;-66
2022/08/19 11:18:49;;;;;;;4.57;4.15;;;;;;;39.38;22.40;98947.88;5071981;28;20257;-66
2022/08/19 11:21:18;;;;;;;5.57;4.55;;;;;;;39.36;21.99;98947.47;5072036;28;20195;-64
2022/08/19 11:23:49;;;;;;;4.78;4.18;;;;;;;39.29;21.91;98949.44;5072121;28;20196;-65
2022/08/19 11:26:17;;;;;;;9.88;3.85;;;;;;;39.38;22.35;98941.50;5072663;28;20200;-66
2022/08/19 11:28:44;;;;;;;5.57;4.43;;;;;;;39.53;22.39;98943.06;5071940;28;20227;-63
2022/08/19 11:31:12;;;;;;;6.63;3.72;;;;;;;39.13;22.52;98943.50;5072583;28;20247;-65
2022/08/19 11:33:39;;;;;;;5.00;4.50;;;;;;;39.36;22.86;98933.56;5071819;28;20734;-66
2022/08/19 11:36:07;;;;;;;6.43;4.10;;;;;;;39.59;21.80;98935.88;5072406;28;20192;-64
2022/08/19 11:38:35;;;;;;;3.90;3.60;;;;;;;39.59;21.80;98930.31;5072174;28;20306;-63
2022/08/19 11:41:05;;;;;;;4.90;3.70;;;;;;;39.58;20.75;98937.91;5071675;28;20279;-64
2022/08/19 11:43:33;;;;;;;4.00;3.70;;;;;;;39.68;20.67;98930.72;5072371;28;20206;-66
2022/08/19 11:46:04;;;;;;;4.95;3.50;;;;;;;39.69;21.52;98921.16;5071707;28;20593;-64
2022/08/19 11:48:30;;;;;;;19.10;4.47;;;;;;;39.57;21.81;98925.19;5072468;28;20245;-63
2022/08/19 11:50:57;;;;;;;5.88;3.80;;;;;;;39.58;21.25;98924.00;5071645;28;20651;-65
2022/08/19 11:53:24;;;;;;;15.43;4.50;;;;;;;39.41;21.63;98922.06;5071939;28;20187;-65
2022/08/19 11:55:55;;;;;;;4.38;4.07;;;;;;;39.35;21.38;98915.28;5071471;28;20625;-65
2022/08/19 11:58:24;;;;;;;7.05;4.05;;;;;;;38.95;21.90;98901.81;5071774;28;20208;-65
2022/08/19 12:00:51;;;;;;;3.80;3.28;;;;;;;38.78;21.92;98908.16;5071812;28;20223;-64